createdAt,value
2022-10-28T00:01:25.040Z,17.35
2022-10-28T00:03:58.953Z,18.00
2022-10-28T00:06:31.217Z,18.77
2022-10-28T00:08:59.080Z,18.50
2022-10-28T00:11:31.712Z,19.75
2022-10-28T00:14:05.817Z,19.02
2022-10-28T00:16:37.061Z,19.58
2022-10-28T00:19:07.737Z,19.20
2022-10-28T00:21:38.558Z,18.80
2022-10-28T00:24:08.399Z,20.60
2022-10-28T00:26:39.037Z,21.15
2022-10-28T00:29:13.194Z,20.10
2022-10-28T00:31:41.281Z,19.10
2022-10-28T00:34:17.394Z,18.33
2022-10-28T00:36:47.077Z,19.40
2022-10-28T00:39:22.583Z,18.55
2022-10-28T00:42:03.742Z,19.13
2022-10-28T00:44:47.312Z,19.02
2022-10-28T00:47:31.808Z,19.17
2022-10-28T00:50:16.858Z,17.65
2022-10-28T00:52:47.516Z,18.13
2022-10-28T00:55:18.056Z,19.70
2022-10-28T00:57:46.763Z,18.88
2022-10-28T01:00:15.214Z,19.13
2022-10-28T01:02:48.725Z,18.38
2022-10-28T01:05:23.274Z,17.38
2022-10-28T01:07:53.585Z,16.88
2022-10-28T01:10:34.101Z,17.27
2022-10-28T01:13:29.761Z,17.15
2022-10-28T01:17:08.848Z,15.88
2022-10-28T01:20:25.641Z,17.80
2022-10-28T01:23:11.133Z,16.13
2022-10-28T01:26:38.254Z,16.85
2022-10-28T01:29:35.579Z,15.77
2022-10-28T01:32:10.817Z,16.15
2022-10-28T01:35:19.456Z,14.35
2022-10-28T01:37:58.869Z,14.02
2022-10-28T01:41:19.275Z,14.80
2022-10-28T01:44:01.394Z,15.57
2022-10-28T01:47:00.454Z,14.88
2022-10-28T01:50:07.081Z,16.20
2022-10-28T01:52:34.803Z,16.85
2022-10-28T01:55:36.315Z,15.50
2022-10-28T01:58:06.560Z,14.48
2022-10-28T02:00:36.176Z,17.05
2022-10-28T02:03:07.073Z,15.77
2022-10-28T02:05:46.847Z,16.48
2022-10-28T02:08:19.643Z,16.17
2022-10-28T02:11:12.053Z,16.35
2022-10-28T02:14:55.233Z,16.42
2022-10-28T02:18:18.256Z,15.00
2022-10-28T02:21:06.573Z,15.07
2022-10-28T02:24:17.904Z,16.05
2022-10-28T02:27:02.789Z,16.00
2022-10-28T02:29:49.009Z,15.25
2022-10-28T02:32:25.085Z,15.00
2022-10-28T02:34:59.518Z,15.10
2022-10-28T02:37:36.222Z,14.50
2022-10-28T02:40:12.279Z,16.08
2022-10-28T02:42:54.389Z,14.50
2022-10-28T02:45:46.744Z,15.18
2022-10-28T02:48:26.696Z,15.65
2022-10-28T02:51:11.044Z,16.67
2022-10-28T02:54:10.932Z,16.13
2022-10-28T02:57:01.462Z,15.25
2022-10-28T02:59:29.559Z,15.88
2022-10-28T03:01:56.931Z,16.98
2022-10-28T03:04:24.449Z,16.02
2022-10-28T03:06:51.796Z,15.63
2022-10-28T03:09:19.029Z,14.93
2022-10-28T03:11:46.257Z,15.80
2022-10-28T03:14:15.411Z,16.35
2022-10-28T03:16:43.087Z,16.27
2022-10-28T03:19:10.313Z,15.57
2022-10-28T03:21:37.567Z,13.60
2022-10-28T03:24:05.158Z,15.48
2022-10-28T03:26:32.378Z,14.60
2022-10-28T03:28:59.668Z,15.52
2022-10-28T03:31:26.974Z,16.13
2022-10-28T03:33:54.235Z,17.25
2022-10-28T03:36:21.474Z,15.40
2022-10-28T03:38:48.823Z,16.90
2022-10-28T03:41:16.249Z,18.05
2022-10-28T03:43:43.580Z,16.67
2022-10-28T03:46:10.861Z,18.50
2022-10-28T03:48:38.073Z,17.20
2022-10-28T03:51:05.626Z,16.77
2022-10-28T03:53:32.969Z,17.83
2022-10-28T03:56:02.807Z,16.50
2022-10-28T03:58:30.555Z,19.60
2022-10-28T04:00:58.024Z,18.17
2022-10-28T04:03:26.745Z,17.27
2022-10-28T04:05:54.733Z,18.35
2022-10-28T04:08:22.398Z,17.08
2022-10-28T04:10:49.784Z,17.25
2022-10-28T04:13:17.698Z,18.80
2022-10-28T04:15:45.065Z,19.55
2022-10-28T04:18:12.914Z,19.80
2022-10-28T04:20:40.551Z,18.95
2022-10-28T04:23:09.425Z,19.17
2022-10-28T04:25:36.611Z,17.98
2022-10-28T04:28:04.140Z,19.73
2022-10-28T04:30:31.423Z,19.05
2022-10-28T04:32:58.790Z,20.38
2022-10-28T04:35:26.394Z,21.38
2022-10-28T04:37:54.043Z,21.58
2022-10-28T04:40:21.499Z,20.85
2022-10-28T04:42:48.606Z,22.80
2022-10-28T04:45:15.961Z,24.38
2022-10-28T04:47:43.153Z,24.00
2022-10-28T04:50:10.425Z,23.00
2022-10-28T04:52:37.566Z,22.88
2022-10-28T04:55:05.425Z,23.30
2022-10-28T04:57:32.981Z,23.30
2022-10-28T05:00:00.090Z,23.50
2022-10-28T05:02:27.268Z,24.60
2022-10-28T05:04:54.520Z,23.33
2022-10-28T05:07:23.562Z,26.05
2022-10-28T05:09:50.864Z,24.00
2022-10-28T05:12:18.040Z,24.38
2022-10-28T05:14:45.962Z,24.02
2022-10-28T05:17:14.547Z,23.73
2022-10-28T05:19:45.117Z,24.52
2022-10-28T05:22:12.279Z,25.13
2022-10-28T05:24:39.555Z,23.55
2022-10-28T05:27:06.786Z,24.25
2022-10-28T05:29:33.953Z,24.00
2022-10-28T05:32:01.291Z,23.23
2022-10-28T05:34:28.547Z,24.83
2022-10-28T05:36:55.779Z,24.77
2022-10-28T05:39:22.937Z,24.00
2022-10-28T05:41:50.076Z,25.55
2022-10-28T05:44:17.216Z,23.00
2022-10-28T05:46:44.416Z,23.10
2022-10-28T05:49:11.649Z,25.02
2022-10-28T05:51:38.921Z,26.02
2022-10-28T05:54:06.353Z,23.52
2022-10-28T05:56:33.628Z,21.98
2022-10-28T05:59:00.869Z,22.83
2022-10-28T06:01:28.134Z,23.02
2022-10-28T06:03:55.389Z,22.60
2022-10-28T06:06:22.500Z,23.25
2022-10-28T06:08:49.640Z,22.33
2022-10-28T06:11:15.266Z,22.55
2022-10-28T06:13:42.425Z,25.02
2022-10-28T06:16:09.741Z,23.17
2022-10-28T06:18:37.127Z,23.33
2022-10-28T06:21:04.665Z,25.45
2022-10-28T06:23:31.886Z,22.75
2022-10-28T06:26:02.339Z,24.63
2022-10-28T06:28:30.600Z,25.23
2022-10-28T06:31:07.699Z,24.40
2022-10-28T06:33:35.093Z,24.25
2022-10-28T06:36:02.794Z,28.05
2022-10-28T06:38:30.110Z,29.90
2022-10-28T06:40:58.085Z,31.50
2022-10-28T06:43:25.810Z,31.13
2022-10-28T06:45:55.522Z,31.00
2022-10-28T06:48:24.665Z,24.95
2022-10-28T06:50:55.039Z,25.98
2022-10-28T06:53:22.683Z,24.73
2022-10-28T06:55:58.183Z,24.80
2022-10-28T06:58:26.108Z,26.02
2022-10-28T07:00:53.833Z,27.35
2022-10-28T07:03:21.980Z,24.48
2022-10-28T07:05:51.408Z,23.15
2022-10-28T07:08:18.773Z,21.05
2022-10-28T07:10:55.407Z,29.58
2022-10-28T07:13:24.302Z,23.92
2022-10-28T07:15:58.137Z,21.20
2022-10-28T07:18:29.003Z,19.92
2022-10-28T07:21:01.747Z,18.77
2022-10-28T07:23:34.141Z,18.67
2022-10-28T07:26:01.597Z,20.67
2022-10-28T07:28:28.942Z,17.73
2022-10-28T07:31:01.865Z,17.73
2022-10-28T07:33:29.249Z,18.60
2022-10-28T07:35:56.692Z,17.80
2022-10-28T07:38:24.019Z,16.60
2022-10-28T07:40:51.178Z,17.65
2022-10-28T07:43:18.391Z,17.02
2022-10-28T07:45:45.676Z,17.25
2022-10-28T07:48:13.178Z,17.75
2022-10-28T07:50:41.728Z,17.40
2022-10-28T07:53:09.040Z,16.88
2022-10-28T07:55:36.316Z,17.73
2022-10-28T07:58:03.580Z,19.05
2022-10-28T08:00:32.055Z,17.83
2022-10-28T08:02:59.274Z,20.58
2022-10-28T08:05:26.455Z,17.80
2022-10-28T08:07:53.834Z,18.45
2022-10-28T08:10:21.162Z,17.98
2022-10-28T08:12:48.366Z,19.38
2022-10-28T08:15:16.711Z,17.98
2022-10-28T08:17:43.902Z,18.23
2022-10-28T08:20:11.275Z,18.15
2022-10-28T08:22:38.417Z,19.10
2022-10-28T08:25:06.021Z,20.33
2022-10-28T08:27:33.277Z,19.00
2022-10-28T08:30:00.510Z,18.83
2022-10-28T08:32:27.828Z,18.83
2022-10-28T08:34:54.967Z,19.30
2022-10-28T08:37:22.288Z,20.55
2022-10-28T08:39:49.596Z,18.98
2022-10-28T08:42:58.896Z,19.50
2022-10-28T08:45:45.951Z,20.48
2022-10-28T08:48:35.849Z,18.88
2022-10-28T08:51:42.163Z,20.17
2022-10-28T08:54:22.912Z,20.52
2022-10-28T08:56:54.871Z,20.00
2022-10-28T08:59:35.186Z,21.27
2022-10-28T09:02:29.247Z,22.17
2022-10-28T09:05:14.858Z,20.70
2022-10-28T09:07:42.225Z,19.80
2022-10-28T09:10:17.898Z,20.75
2022-10-28T09:13:17.029Z,21.13
2022-10-28T09:16:28.696Z,19.42
2022-10-28T09:19:40.301Z,19.00
2022-10-28T09:22:22.847Z,19.25
2022-10-28T09:25:17.848Z,18.95
2022-10-28T09:28:18.854Z,19.98
2022-10-28T09:31:25.752Z,19.45
2022-10-28T09:37:14.337Z,20.20
2022-10-28T09:39:54.122Z,22.05
2022-10-28T09:45:24.071Z,19.23
2022-10-28T09:48:37.929Z,20.30
2022-10-28T09:51:05.857Z,20.13
2022-10-28T09:53:56.022Z,19.65
2022-10-28T09:56:24.787Z,20.85
2022-10-28T09:58:54.611Z,20.92
2022-10-28T10:01:22.487Z,20.05
2022-10-28T10:03:51.901Z,20.63
2022-10-28T10:06:38.855Z,20.25
2022-10-28T10:09:06.137Z,20.77
2022-10-28T10:11:47.171Z,21.02
2022-10-28T10:14:39.981Z,21.02
2022-10-28T10:17:20.001Z,24.63
2022-10-28T10:20:20.588Z,23.92
2022-10-28T10:22:49.951Z,24.42
2022-10-28T10:25:20.084Z,23.90
2022-10-28T10:28:14.771Z,26.63
2022-10-28T10:30:51.498Z,25.67
2022-10-28T10:33:36.450Z,26.92
2022-10-28T10:36:13.557Z,26.33
2022-10-28T10:39:03.466Z,25.15
2022-10-28T10:41:41.785Z,25.30
2022-10-28T10:44:32.783Z,26.23
2022-10-28T10:47:06.050Z,23.67
2022-10-28T10:49:35.715Z,27.13
2022-10-28T10:52:14.934Z,28.08
2022-10-28T10:55:01.773Z,27.30
2022-10-28T10:57:29.706Z,26.30
2022-10-28T10:59:57.967Z,26.95
2022-10-28T11:02:35.026Z,25.75
2022-10-28T11:05:09.510Z,27.98
2022-10-28T11:07:40.492Z,26.33
2022-10-28T11:10:28.444Z,33.80
2022-10-28T11:13:01.469Z,26.00
2022-10-28T11:15:31.587Z,24.23
2022-10-28T11:18:21.392Z,26.40
2022-10-28T11:21:43.780Z,27.75
2022-10-28T11:24:34.749Z,26.73
2022-10-28T11:27:57.596Z,25.75
2022-10-28T11:31:32.021Z,26.25
2022-10-28T11:34:52.677Z,26.25
2022-10-28T11:37:52.257Z,27.38
2022-10-28T11:41:00.798Z,39.10
2022-10-28T11:43:59.691Z,28.85
2022-10-28T11:47:28.186Z,26.95
2022-10-28T11:50:21.538Z,27.00
2022-10-28T11:53:30.505Z,27.55
2022-10-28T11:56:49.466Z,26.65
2022-10-28T11:59:58.980Z,26.27
2022-10-28T12:03:19.877Z,26.83
2022-10-28T12:06:17.080Z,25.42
2022-10-28T12:09:17.584Z,26.55
2022-10-28T12:12:22.091Z,27.08
2022-10-28T12:15:14.731Z,25.88
2022-10-28T12:18:11.989Z,25.00
2022-10-28T12:21:05.631Z,25.38
2022-10-28T12:23:38.219Z,26.35
2022-10-28T12:26:11.996Z,25.17
2022-10-28T12:28:55.642Z,27.98
2022-10-28T12:31:47.909Z,26.50
2022-10-28T12:34:25.077Z,25.80
2022-10-28T12:37:12.235Z,24.58
2022-10-28T12:40:07.447Z,25.48
2022-10-28T12:42:43.738Z,28.00
2022-10-28T12:45:17.783Z,26.27
2022-10-28T12:48:22.248Z,28.67
2022-10-28T12:51:10.989Z,28.73
2022-10-28T12:54:05.791Z,26.35
2022-10-28T12:56:50.692Z,25.70
2022-10-28T12:59:34.966Z,26.83
2022-10-28T13:02:05.550Z,26.00
2022-10-28T13:04:33.027Z,22.38
2022-10-28T13:07:27.646Z,24.30
2022-10-28T13:10:26.913Z,24.30
2022-10-28T13:13:57.379Z,24.65
2022-10-28T13:17:34.282Z,24.98
2022-10-28T13:20:22.747Z,22.17
2022-10-28T13:23:14.545Z,16.52
2022-10-28T13:26:04.126Z,16.05
2022-10-28T13:28:40.684Z,15.82
2022-10-28T13:31:08.960Z,15.02
2022-10-28T13:33:38.544Z,16.58
2022-10-28T13:36:28.109Z,16.27
2022-10-28T13:39:03.680Z,16.38
2022-10-28T13:41:40.895Z,16.88
2022-10-28T13:44:10.419Z,17.20
2022-10-28T13:46:59.410Z,16.35
2022-10-28T13:49:28.607Z,16.48
2022-10-28T13:52:21.292Z,16.15
2022-10-28T13:54:49.286Z,16.88
2022-10-28T13:57:35.143Z,16.67
2022-10-28T14:03:26.308Z,17.52
2022-10-28T14:06:00.801Z,16.45
2022-10-28T14:08:38.571Z,18.10
2022-10-28T14:11:22.735Z,16.95
2022-10-28T14:13:55.823Z,18.92
2022-10-28T14:16:37.796Z,19.02
2022-10-28T14:19:19.980Z,18.98
2022-10-28T14:22:08.403Z,17.98
2022-10-28T14:24:44.699Z,18.63
2022-10-28T14:27:40.511Z,17.85
2022-10-28T14:30:21.285Z,18.08
2022-10-28T14:33:01.987Z,18.50
2022-10-28T14:35:42.512Z,17.60
2022-10-28T14:38:49.831Z,15.55
2022-10-28T14:41:56.014Z,16.10
2022-10-28T14:45:07.612Z,15.43
2022-10-28T14:47:56.027Z,14.75
2022-10-28T14:50:52.527Z,15.13
2022-10-28T14:53:34.136Z,16.15
2022-10-28T14:56:10.352Z,16.63
2022-10-28T14:58:42.222Z,15.90
2022-10-28T15:01:18.768Z,16.02
2022-10-28T15:04:01.833Z,14.55
2022-10-28T15:06:42.953Z,13.38
2022-10-28T15:09:23.121Z,14.40
2022-10-28T15:12:06.335Z,12.75
2022-10-28T15:14:52.157Z,14.10
2022-10-28T15:17:29.103Z,12.63
2022-10-28T15:20:00.327Z,11.85
2022-10-28T15:22:33.195Z,10.73
2022-10-28T15:25:10.511Z,10.57
2022-10-28T15:27:42.091Z,10.40
2022-10-28T15:30:23.643Z,11.25
2022-10-28T15:32:53.020Z,10.32
2022-10-28T15:35:35.503Z,11.32
2022-10-28T15:38:29.287Z,11.55
2022-10-28T15:40:57.473Z,11.43
2022-10-28T15:43:30.720Z,11.32
2022-10-28T15:46:16.318Z,12.35
2022-10-28T15:51:19.582Z,11.10
2022-10-28T15:53:53.907Z,11.75
2022-10-28T15:56:27.883Z,10.57
2022-10-28T15:59:07.209Z,11.27
2022-10-28T16:01:39.879Z,12.85
2022-10-28T16:04:39.354Z,13.27
2022-10-28T16:07:10.124Z,11.90
2022-10-28T16:09:48.791Z,10.95
2022-10-28T16:12:21.446Z,11.02
2022-10-28T16:15:00.686Z,10.85
2022-10-28T16:17:36.210Z,11.55
2022-10-28T16:20:18.467Z,11.15
2022-10-28T16:22:47.170Z,11.85
2022-10-28T16:25:21.702Z,11.27
2022-10-28T16:27:50.715Z,11.95
2022-10-28T16:30:18.454Z,11.00
2022-10-28T16:32:49.869Z,11.50
2022-10-28T16:35:20.508Z,12.43
2022-10-28T16:37:53.725Z,10.75
2022-10-28T16:40:50.841Z,11.77
2022-10-28T16:43:20.022Z,11.73
2022-10-28T16:45:49.636Z,11.73
2022-10-28T16:48:19.366Z,12.57
2022-10-28T16:50:54.732Z,12.13
2022-10-28T16:53:22.260Z,12.63
2022-10-28T16:55:49.715Z,11.80
2022-10-28T16:58:19.569Z,11.70
2022-10-28T17:00:49.057Z,11.98
2022-10-28T17:03:16.270Z,12.68
2022-10-28T17:05:43.985Z,14.25
2022-10-28T17:08:12.187Z,12.45
2022-10-28T17:10:41.751Z,12.43
2022-10-28T17:13:14.763Z,12.88
2022-10-28T17:15:45.521Z,12.93
2022-10-28T17:18:15.025Z,16.17
2022-10-28T17:20:42.443Z,14.15
2022-10-28T17:23:09.573Z,15.75
2022-10-28T17:25:36.852Z,15.13
2022-10-28T17:28:04.430Z,14.88
2022-10-28T17:30:31.752Z,17.70
2022-10-28T17:32:59.039Z,15.85
2022-10-28T17:35:27.224Z,15.63
2022-10-28T17:37:54.564Z,14.80
2022-10-28T17:40:21.971Z,15.05
2022-10-28T17:42:49.107Z,14.55
2022-10-28T17:45:19.431Z,14.30
2022-10-28T17:47:49.712Z,12.70
2022-10-28T17:50:17.228Z,15.07
2022-10-28T17:52:44.385Z,16.35
2022-10-28T17:55:11.694Z,13.68
2022-10-28T17:57:38.886Z,14.00
2022-10-28T18:00:07.397Z,14.65
2022-10-28T18:02:40.151Z,14.02
2022-10-28T18:05:08.221Z,13.43
2022-10-28T18:07:35.488Z,15.10
2022-10-28T18:10:02.666Z,14.05
2022-10-28T18:12:29.910Z,14.20
2022-10-28T18:14:57.121Z,15.90
2022-10-28T18:17:24.300Z,15.57
2022-10-28T18:19:51.515Z,16.00
2022-10-28T18:22:18.714Z,16.88
2022-10-28T18:24:45.937Z,16.77
2022-10-28T18:27:13.073Z,17.55
2022-10-28T18:29:40.236Z,18.77
2022-10-28T18:32:07.366Z,20.27
2022-10-28T18:34:34.607Z,19.20
2022-10-28T18:37:04.062Z,20.48
2022-10-28T18:39:31.271Z,20.25
2022-10-28T18:41:58.435Z,21.38
2022-10-28T18:44:31.653Z,21.38
2022-10-28T18:46:59.312Z,20.13
2022-10-28T18:49:26.614Z,21.40
2022-10-28T18:51:53.823Z,21.08
2022-10-28T18:54:20.949Z,21.88
2022-10-28T18:56:49.166Z,20.80
2022-10-28T18:59:17.703Z,20.08
2022-10-28T19:01:46.817Z,20.52
2022-10-28T19:04:15.097Z,20.85
2022-10-28T19:06:42.511Z,20.50
2022-10-28T19:09:09.770Z,19.80
2022-10-28T19:11:36.952Z,19.57
2022-10-28T19:14:06.370Z,18.45
2022-10-28T19:16:34.668Z,20.50
2022-10-28T19:19:04.679Z,18.92
2022-10-28T19:21:32.734Z,19.55
2022-10-28T19:24:00.127Z,18.65
2022-10-28T19:26:27.884Z,19.38
2022-10-28T19:28:55.283Z,18.08
2022-10-28T19:31:26.427Z,18.58
2022-10-28T19:33:55.059Z,18.20
2022-10-28T19:36:29.479Z,18.88
2022-10-28T19:38:58.225Z,18.00
2022-10-28T19:41:30.244Z,18.13
2022-10-28T19:44:02.847Z,16.17
2022-10-28T19:46:35.575Z,18.70
2022-10-28T19:49:06.267Z,17.08
2022-10-28T19:51:38.857Z,16.92
2022-10-28T19:54:12.411Z,17.38
2022-10-28T19:56:40.610Z,16.73
2022-10-28T19:59:07.851Z,17.52
2022-10-28T20:01:38.684Z,17.90
2022-10-28T20:04:08.502Z,17.20
2022-10-28T20:06:39.095Z,17.00
2022-10-28T20:09:07.215Z,19.27
2022-10-28T20:11:38.070Z,18.00
2022-10-28T20:14:12.457Z,17.92
2022-10-28T20:16:42.697Z,18.38
2022-10-28T20:19:10.584Z,18.98
2022-10-28T20:21:38.889Z,18.17
2022-10-28T20:24:08.010Z,17.58
2022-10-28T20:26:38.467Z,18.05
2022-10-28T20:29:09.932Z,17.38
2022-10-28T20:31:38.902Z,17.45
2022-10-28T20:34:06.786Z,18.33
2022-10-28T20:36:40.483Z,17.27
2022-10-28T20:39:20.818Z,18.00
2022-10-28T20:41:51.175Z,18.80
2022-10-28T20:44:18.614Z,18.38
2022-10-28T20:46:47.776Z,17.15
2022-10-28T20:49:15.850Z,18.10
2022-10-28T20:51:43.186Z,18.50
2022-10-28T20:54:10.463Z,17.45
2022-10-28T20:56:40.344Z,18.30
2022-10-28T20:59:08.101Z,18.90
2022-10-28T21:01:39.567Z,16.98
2022-10-28T21:04:10.981Z,16.60
2022-10-28T21:06:39.545Z,16.67
2022-10-28T21:09:07.771Z,15.68
2022-10-28T21:11:35.190Z,15.63
2022-10-28T21:14:02.639Z,15.18
2022-10-28T21:16:30.947Z,14.88
2022-10-28T21:19:01.688Z,15.07
2022-10-28T21:21:30.007Z,14.50
2022-10-28T21:23:57.263Z,14.95
2022-10-28T21:26:25.484Z,13.80
2022-10-28T21:28:53.345Z,14.02
2022-10-28T21:31:21.962Z,13.63
2022-10-28T21:36:22.792Z,15.60
2022-10-28T21:38:55.671Z,14.38
2022-10-28T21:41:24.930Z,13.32
2022-10-28T21:43:54.232Z,15.85
2022-10-28T21:46:23.172Z,14.43
2022-10-28T21:48:50.488Z,14.43
2022-10-28T21:51:18.667Z,13.68
2022-10-28T21:53:45.996Z,13.85
2022-10-28T21:56:18.547Z,14.60
2022-10-28T21:58:49.063Z,14.10
2022-10-28T22:01:23.576Z,13.32
2022-10-28T22:03:54.505Z,14.97
2022-10-28T22:06:22.470Z,13.70
2022-10-28T22:08:52.601Z,15.75
2022-10-28T22:11:23.586Z,15.15
2022-10-28T22:14:01.100Z,14.73
2022-10-28T22:16:31.794Z,14.07
2022-10-28T22:19:02.851Z,14.25
2022-10-28T22:21:33.706Z,15.85
2022-10-28T22:24:01.091Z,15.68
2022-10-28T22:26:30.544Z,16.48
2022-10-28T22:28:57.888Z,16.83
2022-10-28T22:31:33.466Z,17.83
2022-10-28T22:36:30.183Z,16.67
2022-10-28T22:38:57.776Z,16.27
2022-10-28T22:41:33.883Z,16.23
2022-10-28T22:44:02.952Z,15.77
2022-10-28T22:46:33.713Z,17.95
2022-10-28T22:49:00.900Z,13.55
2022-10-28T22:51:28.101Z,15.35
2022-10-28T22:53:55.380Z,13.23
2022-10-28T22:56:26.135Z,13.50
2022-10-28T22:58:58.191Z,12.52
2022-10-28T23:01:28.338Z,14.38
2022-10-28T23:03:56.430Z,13.32
2022-10-28T23:06:27.154Z,13.25
2022-10-28T23:08:55.111Z,12.77
2022-10-28T23:11:23.275Z,13.32
2022-10-28T23:13:52.787Z,11.45
2022-10-28T23:16:21.595Z,13.23
2022-10-28T23:18:49.284Z,13.38
2022-10-28T23:21:27.667Z,12.50
2022-10-28T23:23:59.973Z,12.52
2022-10-28T23:26:29.832Z,11.38
2022-10-28T23:28:59.805Z,10.82
2022-10-28T23:31:28.323Z,11.77
2022-10-28T23:33:56.432Z,12.48
2022-10-28T23:36:23.722Z,13.20
2022-10-28T23:38:51.017Z,12.38
2022-10-28T23:41:19.346Z,11.95
2022-10-28T23:43:48.596Z,15.13
2022-10-28T23:46:16.203Z,15.02
2022-10-28T23:48:43.466Z,17.75
2022-10-28T23:51:10.754Z,17.67
2022-10-28T23:53:38.030Z,18.13
2022-10-28T23:56:06.165Z,15.25
2022-10-28T23:58:33.286Z,15.15
